Sunday, November 19, 2017, 5:41 AM EST
Back to Local

KDOV, Dover Air Force Base

Location: Dover, DE, United States Lat: 39.133
Local Time: 5:41 AM EST (10:41 GMT) Lon: -75.467
Time Zone: US/Eastern Elev: 29 ft

Show me the last for .
Show Decoded

2017-11-19 05:25 METAR KDOV 191025Z 20018G26KT 10SM -RA BKN030 OVC070 15/14 A2932 RMK AO2A SLP932
                 $ =
2017-11-19 04:56 METAR KDOV 190956Z 20017G23KT 10SM -RA BKN040 BKN070 OVC080 14/13 A2932 RMK AO2A
                 PK WND 20036/06 RAE45RAB51 SLP932 P0005 T01440132 $ =
2017-11-19 04:51 METAR KDOV 190951Z 20018G25KT 10SM -RA BKN040 BKN070 OVC080 14/13 A2932 RMK AO2A
                 RAE45RAB51 SLP932 $ =
2017-11-19 04:45 METAR KDOV 190945Z 20017G27KT 10SM BKN040 OVC070 14/13 A2932 RMK AO2A SLP932 $ =
2017-11-19 03:56 METAR KDOV 190856Z 19024G30KT 10SM RA BKN035 BKN050 OVC080 16/13 A2932 RMK AO2A
                 PK WND 19031/53 SLP932 P0004 60007 T01560130 58023 $ =
2017-11-19 02:56 METAR KDOV 190756Z 20017G28KT 10SM RA BKN035 OVC050 16/13 A2937 RMK AO2A PK WND
                 19028/45 SLP949 P0002 T01590128 $ =
2017-11-19 02:18 METAR KDOV 190718Z 19018G26KT 10SM -RA FEW060 BKN100 16/13 A2936 RMK SLP945 $ =
2017-11-19 02:05 METAR KDOV 190705Z 20020G28KT 10SM -RA VCTS FEW050CB SCT060 BKN100 16/12 A2937
                 RMK AO2A SLP949 $ =
2017-11-19 01:56 METAR KDOV 190656Z 20018G27KT 10SM -RA VCTS FEW050CB SCT065 BKN100 17/12 A2938
                 RMK AO2A PK WND 20034/20 RAB24 SLP952 P0001 T01650124 $ =
2017-11-19 01:24 METAR KDOV 190624Z 20022G28KT 10SM -RA BKN100 17/12 A2938 RMK AO2A RAB24 SLP952
                 $ =
2017-11-19 00:56 METAR KDOV 190556Z 20025G35KT 10SM BKN100 17/12 A2938 RMK AO2A SLP952 T01680118
                 10168 20144 57040 $ =
2017-11-18 23:56 METAR KDOV 190456Z 20025G36KT 10SM CLR 17/11 A2941 RMK AO2A PK WND 19038/19
                 SLP962 T01660113 401660004 $ =
2017-11-18 22:56 METAR KDOV 190356Z AUTO 19021G31KT 10SM FEW140 16/16 A2944 RMK AO2 PK WND
                 19035/39 SLP973 T01620160 $ =
2017-11-18 21:56 METAR KDOV 190256Z AUTO 19021G26KT 10SM CLR 16/15 A2950 RMK AO2 PK WND 18031/19
                 SLP993 T01590154 57028 $ =
2017-11-18 20:56 METAR KDOV 190156Z AUTO 20018G27KT 10SM CLR 16/15 A2952 RMK AO2 PK WND 21032/39
                 SLP000 T01590151 $ =
2017-11-18 19:56 METAR KDOV 190056Z AUTO 19014G23KT 10SM CLR 15/14 A2955 RMK AO2 SLP010 T01510138
                 $ =
2017-11-18 18:56 METAR KDOV 182356Z AUTO 18015G23KT 10SM FEW140 14/12 A2959 RMK AO2 SLP023
                 T01440121 10156 20131 57021 $ =
2017-11-18 17:56 METAR KDOV 182256Z AUTO 19013KT 10SM FEW100 14/10 A2962 RMK AO2 SLP034 T01370103
                 $ =
2017-11-18 16:56 METAR KDOV 182156Z AUTO 19016G22KT 10SM CLR 13/09 A2964 RMK AO2 SLP040 T01310093
                 $ =
2017-11-18 15:56 METAR KDOV 182056Z AUTO 19017G25KT 10SM FEW100 14/10 A2965 RMK AO2 SLP044
                 T01350097 57033 $ =
2017-11-18 14:56 METAR KDOV 181956Z AUTO 19018G26KT 10SM BKN095 15/11 A2968 RMK AO2 PK WND
                 17026/52 SLP054 T01480110 $ =
2017-11-18 13:56 METAR KDOV 181856Z AUTO 17013KT 10SM FEW075 SCT180 15/12 A2970 RMK AO2 SLP061
                 T01470118 $ =
2017-11-18 12:56 METAR KDOV 181756Z AUTO 18012KT 10SM CLR 15/13 A2975 RMK AO2 SLP078 T01470126
                 10147 20015 57055 $ =
2017-11-18 11:56 METAR KDOV 181656Z AUTO 17012KT 10SM FEW120 12/11 A2981 RMK AO2 SLP098 T01220114
                 $ =
2017-11-18 10:56 METAR KDOV 181556Z AUTO 17012KT 10SM FEW150 SCT190 11/11 A2987 RMK AO2 SLP118
                 T01120109 $ =
2017-11-18 09:56 METAR KDOV 181456Z AUTO 17010KT 10SM SCT200 09/09 A2991 RMK AO2 SLP132 T00900090
                 57026 $ =
2017-11-18 08:56 METAR KDOV 181356Z AUTO 16009KT 10SM FEW200 07/07 A2994 RMK AO2 SLP142 T00740074
                 $ =
2017-11-18 07:56 METAR KDOV 181256Z AUTO 15007KT 10SM CLR 04/04 A2996 RMK AO2 SLP149 T00380038 $
                 =
2017-11-18 06:56 METAR KDOV 181156Z AUTO 15007KT 10SM CLR 01/01 A2999 RMK AO2 SLP159 T00140014
                 10015 20004 58012 $ =
2017-11-18 05:56 METAR KDOV 181056Z AUTO 17007KT 10SM CLR 01/01 A3001 RMK AO2 SLP166 T00090009 $
                 =

Support USWX by starting your Amazon purchase here.